Mullica Hill, NJ (08062)

10:24 PM EDT on May 27, 2015 (GMT -0400)
fruitwood farms inc | | Change Station
CLOSE
Current Station
Personal Weather Station
Location: Elk, NJ
Elevation: 6 ft
Nearby Weather Stations

Elev 6 ft 39.67 °N, 75.18 °W | Updated 7 seconds ago

Overcast
Overcast
70.7 °F
Feels Like 70.7 °F
N
1.2
Wind Variable Wind from East
Gusts 6.0 mph

Today
High -- | Low -- °F
--% Chance of Precip.
Yesterday
High -- | Low -- °F
Precip. -- in
5:37 AM 8:18 PM
Waxing Gibbous, 72% visible
Pressure 30.16 in
Visibility 10.0 miles
Clouds Mostly Cloudy 4100 ft
Mostly Cloudy 5000 ft
Mostly Cloudy 20000 ft
Dew Point 68 °F
Humidity 93%
Rainfall in
Snow Depth Not available.
UV 0 out of 12
Pollen 4.60 out of 12
Air Quality Not available.
Flu Activity Sporadic
METAR KPHL 280154Z 17005KT 10SM BKN041 BKN050 BKN200 23/21 A3016 RMK AO2 RAB0056E15 TSB12E31 SLP211 P0003 T02330211 $

More Conditions Fewer Conditions

Pressure 30.16 in
Visibility 10.0 miles
Clouds Mostly Cloudy 4100 ft
Mostly Cloudy 5000 ft
Mostly Cloudy 20000 ft
Dew Point 68 °F
Humidity 93%
Rainfall in
Snow Depth Not available.
UV 0 out of 12
Pollen 4.60 out of 12
Air Quality Not available.
Flu Activity Sporadic
METAR KPHL 280154Z 17005KT 10SM BKN041 BKN050 BKN200 23/21 A3016 RMK AO2 RAB0056E15 TSB12E31 SLP211 P0003 T02330211 $

More Conditions Fewer Conditions

Nowcast | as of 9:30 PM EDT on May 27, 2015

Between now and 1100 PM, the last of the isolated rain showers in southeastern Pennsylvania, northeastern Maryland, northern and central Delaware, and central and southern New Jersey should dissipate.

×

10-Day Weather Forecast

Almanac

Astronomy

May. 27, 2015 Rise Set
Actual Time
Civil Twilight
Nautical Twilight
Astronomical Twilight
Moon
Length of Visible Light
Length of Day
Tomorrow will be .
, % of the Moon is Illuminated

Today's Extremes

State Highs State Lows

Community

WunderPhotos

Upload Photos

1,824,860 photos uploaded!

WunderBlogs® & News

Nearby

Air Quality

  Air Quality AQ Index Pollutant
Not available.

Snow Depth

Station Depth Elevation

Earthquake Activity

City Distance Mag. Time & Date
Minimum magnitude displayed is 2.5.

Coastal Water Temperatures

Place Temperature

Stations

Nearby Weather Stations

Station Location Temp. Windchill Dew Point Humidity Wind Precip. Elev Updated Type